This is the latest recevied weather packets stored in our database for station/object N3WPH. If no packets are shown the sender has not sent any weather packets the latest 10 day(s).
| Time | Temp. | Humidity | Pressure | Rain* | Wind** | Luminosity | Snow |
|---|---|---|---|---|---|---|---|
| 1777294652 | 12.22° C | 77% | 1024.7 hPa | 0 mm | - | 337 W/m² | - |
| 1777294349 | 12.22° C | 76% | 1024.5 hPa | 0 mm | - | 364 W/m² | - |
| 1777294045 | 12.78° C | 76% | 1024.4 hPa | 0 mm | - | 334 W/m² | - |
| 1777293743 | 12.22° C | 79% | 1024.4 hPa | 0 mm | - | 282 W/m² | - |
| 1777293436 | 11.11° C | 82% | 1024.6 hPa | 0 mm | - | 253 W/m² | - |
| 1777293133 | 11.11° C | 87% | 1024.4 hPa | 0 mm | - | 228 W/m² | - |
| 1777292832 | 10° C | 93% | 1024.3 hPa | 0 mm | - | 207 W/m² | - |
| 1777292529 | 9.44° C | 97% | 1024.4 hPa | 0 mm | - | 184 W/m² | - |
| 1777292225 | 8.89° C | 98% | 1024.1 hPa | 0 mm | - | 170 W/m² | - |
| 1777291921 | 8.33° C | 99% | 1024.4 hPa | 0 mm | - | 152 W/m² | - |
| 1777291618 | 7.78° C | 99% | 1024.3 hPa | 0 mm | - | 136 W/m² | - |
| 1777291315 | 7.22° C | 99% | 1024.1 hPa | 0 mm | - | 116 W/m² | - |
| 1777291011 | 6.67° C | 99% | 1024.1 hPa | 0 mm | - | 105 W/m² | - |
| 1777290708 | 6.67° C | 99% | 1024.2 hPa | 0 mm | - | 59 W/m² | - |
| 1777290404 | 6.11° C | 99% | 1024.2 hPa | 0 mm | - | 46 W/m² | - |
| 1777290099 | 5.56° C | 99% | 1023.9 hPa | 0 mm | - | 42 W/m² | - |
| 1777289797 | 5.56° C | 99% | 1024 hPa | 0 mm | - | 45 W/m² | - |
| 1777289493 | 5° C | 99% | 1024 hPa | 0 mm | - | 36 W/m² | - |
| 1777289189 | 5° C | 99% | 1023.8 hPa | 0 mm | - | 35 W/m² | - |
| 1777288886 | 5° C | 99% | 1024 hPa | 0 mm | - | 33 W/m² | - |
| 1777288582 | 4.44° C | 99% | 1023.9 hPa | 0 mm | - | 31 W/m² | - |
| 1777288279 | 3.89° C | 98% | 1023.9 hPa | 0 mm | - | 28 W/m² | - |
| 1777287976 | 3.89° C | 98% | 1023.9 hPa | 0 mm | - | 27 W/m² | - |
| 1777287673 | 3.89° C | 98% | 1023.8 hPa | 0 mm | - | 26 W/m² | - |
| 1777287369 | 3.89° C | 98% | 1023.6 hPa | 0 mm | - | 23 W/m² | - |
* Rain latest hour (hover to see other rain measurements)
** Current wind speed in m/s (hover to see current wind gust speed)